sensor_id;sensor_type;location;lat;lon;timestamp;P1;durP1;ratioP1;P2;durP2;ratioP2
21519;SDS011;10921;53.614;9.882;2023-03-23T00:00:37;41.13;;;37.05;;
21519;SDS011;10921;53.614;9.882;2023-03-23T00:03:02;41.35;;;37.35;;
21519;SDS011;10921;53.614;9.882;2023-03-23T00:05:28;41.67;;;37.60;;
21519;SDS011;10921;53.614;9.882;2023-03-23T00:07:54;44.10;;;39.78;;
21519;SDS011;10921;53.614;9.882;2023-03-23T00:10:20;44.70;;;39.92;;
21519;SDS011;10921;53.614;9.882;2023-03-23T00:12:46;44.92;;;40.10;;
21519;SDS011;10921;53.614;9.882;2023-03-23T00:15:14;44.00;;;39.50;;
21519;SDS011;10921;53.614;9.882;2023-03-23T00:17:42;45.03;;;40.35;;
21519;SDS011;10921;53.614;9.882;2023-03-23T00:20:09;45.63;;;40.92;;
21519;SDS011;10921;53.614;9.882;2023-03-23T00:22:36;44.97;;;40.30;;
21519;SDS011;10921;53.614;9.882;2023-03-23T00:25:06;46.77;;;42.03;;
21519;SDS011;10921;53.614;9.882;2023-03-23T00:27:33;47.33;;;42.50;;
21519;SDS011;10921;53.614;9.882;2023-03-23T00:29:59;49.83;;;44.65;;
21519;SDS011;10921;53.614;9.882;2023-03-23T00:32:25;50.38;;;45.20;;
21519;SDS011;10921;53.614;9.882;2023-03-23T00:34:55;50.97;;;45.35;;
21519;SDS011;10921;53.614;9.882;2023-03-23T00:37:21;50.10;;;45.03;;
21519;SDS011;10921;53.614;9.882;2023-03-23T00:39:47;49.05;;;44.13;;
21519;SDS011;10921;53.614;9.882;2023-03-23T00:42:13;50.60;;;45.40;;
21519;SDS011;10921;53.614;9.882;2023-03-23T00:44:41;52.70;;;47.30;;
21519;SDS011;10921;53.614;9.882;2023-03-23T00:47:08;53.75;;;47.83;;
21519;SDS011;10921;53.614;9.882;2023-03-23T00:49:35;52.58;;;47.22;;
21519;SDS011;10921;53.614;9.882;2023-03-23T00:52:01;51.22;;;46.30;;
21519;SDS011;10921;53.614;9.882;2023-03-23T00:54:28;51.83;;;46.88;;
21519;SDS011;10921;53.614;9.882;2023-03-23T00:56:54;52.72;;;47.65;;
21519;SDS011;10921;53.614;9.882;2023-03-23T00:59:19;53.85;;;48.20;;
21519;SDS011;10921;53.614;9.882;2023-03-23T01:01:45;53.22;;;47.70;;
21519;SDS011;10921;53.614;9.882;2023-03-23T01:04:11;50.92;;;46.08;;
21519;SDS011;10921;53.614;9.882;2023-03-23T01:06:38;52.17;;;47.00;;
21519;SDS011;10921;53.614;9.882;2023-03-23T01:09:06;52.33;;;46.97;;
21519;SDS011;10921;53.614;9.882;2023-03-23T01:11:34;51.92;;;46.63;;
21519;SDS011;10921;53.614;9.882;2023-03-23T01:13:59;51.10;;;46.22;;
21519;SDS011;10921;53.614;9.882;2023-03-23T01:16:25;52.05;;;46.83;;
21519;SDS011;10921;53.614;9.882;2023-03-23T01:18:51;53.03;;;47.88;;
21519;SDS011;10921;53.614;9.882;2023-03-23T01:21:17;52.35;;;47.15;;
21519;SDS011;10921;53.614;9.882;2023-03-23T01:23:44;55.67;;;50.17;;
21519;SDS011;10921;53.614;9.882;2023-03-23T01:26:14;56.50;;;50.30;;
21519;SDS011;10921;53.614;9.882;2023-03-23T01:28:42;55.63;;;49.97;;
21519;SDS011;10921;53.614;9.882;2023-03-23T01:31:13;54.53;;;49.15;;
21519;SDS011;10921;53.614;9.882;2023-03-23T01:33:40;56.63;;;50.38;;
21519;SDS011;10921;53.614;9.882;2023-03-23T01:36:10;54.40;;;48.67;;
21519;SDS011;10921;53.614;9.882;2023-03-23T01:38:38;57.17;;;50.88;;
21519;SDS011;10921;53.614;9.882;2023-03-23T01:41:03;56.50;;;50.55;;
21519;SDS011;10921;53.614;9.882;2023-03-23T01:43:29;55.88;;;50.20;;
21519;SDS011;10921;53.614;9.882;2023-03-23T01:45:56;57.63;;;51.53;;
21519;SDS011;10921;53.614;9.882;2023-03-23T01:53:39;56.30;;;50.70;;
21519;SDS011;10921;53.614;9.882;2023-03-23T01:56:10;60.75;;;54.22;;
21519;SDS011;10921;53.614;9.882;2023-03-23T01:58:39;58.47;;;52.30;;
21519;SDS011;10921;53.614;9.882;2023-03-23T02:01:10;59.45;;;52.95;;
21519;SDS011;10921;53.614;9.882;2023-03-23T02:03:39;61.00;;;54.47;;
21519;SDS011;10921;53.614;9.882;2023-03-23T02:06:08;57.92;;;52.08;;
21519;SDS011;10921;53.614;9.882;2023-03-23T02:08:34;59.17;;;53.22;;
21519;SDS011;10921;53.614;9.882;2023-03-23T02:11:01;59.15;;;52.78;;
21519;SDS011;10921;53.614;9.882;2023-03-23T02:13:27;57.70;;;51.65;;
21519;SDS011;10921;53.614;9.882;2023-03-23T02:16:03;60.00;;;53.58;;
21519;SDS011;10921;53.614;9.882;2023-03-23T02:21:40;58.45;;;52.03;;
21519;SDS011;10921;53.614;9.882;2023-03-23T02:27:00;58.60;;;52.55;;
21519;SDS011;10921;53.614;9.882;2023-03-23T02:35:01;56.15;;;50.08;;
21519;SDS011;10921;53.614;9.882;2023-03-23T02:37:48;57.63;;;51.60;;
21519;SDS011;10921;53.614;9.882;2023-03-23T02:40:33;53.15;;;48.03;;
21519;SDS011;10921;53.614;9.882;2023-03-23T02:43:06;57.08;;;50.47;;
21519;SDS011;10921;53.614;9.882;2023-03-23T02:48:01;57.08;;;51.30;;
21519;SDS011;10921;53.614;9.882;2023-03-23T02:50:29;53.92;;;48.58;;
21519;SDS011;10921;53.614;9.882;2023-03-23T02:52:57;54.40;;;48.88;;
21519;SDS011;10921;53.614;9.882;2023-03-23T02:55:25;55.85;;;50.15;;
21519;SDS011;10921;53.614;9.882;2023-03-23T02:57:54;55.63;;;50.30;;
21519;SDS011;10921;53.614;9.882;2023-03-23T03:00:20;54.53;;;49.03;;
21519;SDS011;10921;53.614;9.882;2023-03-23T03:02:46;57.05;;;50.83;;
21519;SDS011;10921;53.614;9.882;2023-03-23T03:16:07;53.35;;;48.10;;
21519;SDS011;10921;53.614;9.882;2023-03-23T03:18:39;55.60;;;49.92;;
21519;SDS011;10921;53.614;9.882;2023-03-23T03:21:11;53.17;;;47.67;;
21519;SDS011;10921;53.614;9.882;2023-03-23T03:23:39;53.05;;;47.90;;
21519;SDS011;10921;53.614;9.882;2023-03-23T03:26:08;53.17;;;47.85;;
21519;SDS011;10921;53.614;9.882;2023-03-23T03:28:36;56.38;;;50.65;;
21519;SDS011;10921;53.614;9.882;2023-03-23T03:31:03;53.58;;;47.85;;
21519;SDS011;10921;53.614;9.882;2023-03-23T03:33:30;56.38;;;50.45;;
21519;SDS011;10921;53.614;9.882;2023-03-23T03:35:57;55.55;;;49.85;;
21519;SDS011;10921;53.614;9.882;2023-03-23T03:38:28;56.30;;;50.40;;
21519;SDS011;10921;53.614;9.882;2023-03-23T03:40:54;55.22;;;49.88;;
21519;SDS011;10921;53.614;9.882;2023-03-23T03:43:20;55.10;;;49.67;;
21519;SDS011;10921;53.614;9.882;2023-03-23T03:45:46;55.05;;;49.42;;
21519;SDS011;10921;53.614;9.882;2023-03-23T03:48:11;55.95;;;49.92;;
21519;SDS011;10921;53.614;9.882;2023-03-23T03:50:37;53.85;;;48.38;;
21519;SDS011;10921;53.614;9.882;2023-03-23T03:53:03;53.85;;;48.22;;
21519;SDS011;10921;53.614;9.882;2023-03-23T03:55:30;52.90;;;47.75;;
21519;SDS011;10921;53.614;9.882;2023-03-23T03:58:01;54.00;;;48.88;;
21519;SDS011;10921;53.614;9.882;2023-03-23T04:00:29;53.92;;;48.38;;
21519;SDS011;10921;53.614;9.882;2023-03-23T04:02:55;49.25;;;44.13;;
21519;SDS011;10921;53.614;9.882;2023-03-23T04:05:21;48.15;;;43.55;;
21519;SDS011;10921;53.614;9.882;2023-03-23T04:07:47;47.33;;;42.78;;
21519;SDS011;10921;53.614;9.882;2023-03-23T04:10:17;47.45;;;43.20;;
21519;SDS011;10921;53.614;9.882;2023-03-23T04:15:15;47.83;;;42.88;;
21519;SDS011;10921;53.614;9.882;2023-03-23T04:17:41;48.55;;;43.63;;
21519;SDS011;10921;53.614;9.882;2023-03-23T04:20:07;47.92;;;43.10;;
21519;SDS011;10921;53.614;9.882;2023-03-23T04:22:39;48.60;;;44.05;;
21519;SDS011;10921;53.614;9.882;2023-03-23T04:25:09;48.00;;;43.20;;
21519;SDS011;10921;53.614;9.882;2023-03-23T04:27:37;46.28;;;41.88;;
21519;SDS011;10921;53.614;9.882;2023-03-23T04:30:04;48.22;;;43.25;;
21519;SDS011;10921;53.614;9.882;2023-03-23T04:32:31;46.65;;;41.83;;
21519;SDS011;10921;53.614;9.882;2023-03-23T04:34:57;47.10;;;42.15;;
21519;SDS011;10921;53.614;9.882;2023-03-23T04:37:27;47.33;;;42.80;;
21519;SDS011;10921;53.614;9.882;2023-03-23T04:39:56;46.72;;;42.33;;
21519;SDS011;10921;53.614;9.882;2023-03-23T04:42:29;49.22;;;44.42;;
21519;SDS011;10921;53.614;9.882;2023-03-23T04:47:25;47.15;;;42.65;;
21519;SDS011;10921;53.614;9.882;2023-03-23T04:49:54;47.55;;;42.88;;
21519;SDS011;10921;53.614;9.882;2023-03-23T04:52:21;48.63;;;43.67;;
21519;SDS011;10921;53.614;9.882;2023-03-23T04:54:47;47.75;;;42.95;;
21519;SDS011;10921;53.614;9.882;2023-03-23T04:57:12;46.58;;;41.83;;
21519;SDS011;10921;53.614;9.882;2023-03-23T04:59:40;46.97;;;42.15;;
21519;SDS011;10921;53.614;9.882;2023-03-23T05:02:06;47.17;;;42.67;;
21519;SDS011;10921;53.614;9.882;2023-03-23T05:04:32;47.92;;;43.28;;
21519;SDS011;10921;53.614;9.882;2023-03-23T05:06:58;47.33;;;42.78;;
21519;SDS011;10921;53.614;9.882;2023-03-23T05:09:24;46.05;;;41.55;;
21519;SDS011;10921;53.614;9.882;2023-03-23T05:11:49;46.33;;;41.78;;
21519;SDS011;10921;53.614;9.882;2023-03-23T05:14:15;47.03;;;41.95;;
21519;SDS011;10921;53.614;9.882;2023-03-23T05:16:41;44.40;;;40.17;;
21519;SDS011;10921;53.614;9.882;2023-03-23T05:19:06;45.28;;;41.17;;
21519;SDS011;10921;53.614;9.882;2023-03-23T05:21:33;46.42;;;41.17;;
21519;SDS011;10921;53.614;9.882;2023-03-23T05:23:59;42.60;;;38.67;;
21519;SDS011;10921;53.614;9.882;2023-03-23T05:26:25;42.30;;;38.33;;
21519;SDS011;10921;53.614;9.882;2023-03-23T05:28:54;41.35;;;37.15;;
21519;SDS011;10921;53.614;9.882;2023-03-23T05:31:21;42.50;;;38.22;;
21519;SDS011;10921;53.614;9.882;2023-03-23T05:33:47;41.25;;;37.00;;
21519;SDS011;10921;53.614;9.882;2023-03-23T05:36:12;40.80;;;36.65;;
21519;SDS011;10921;53.614;9.882;2023-03-23T05:38:41;40.55;;;36.55;;
21519;SDS011;10921;53.614;9.882;2023-03-23T05:41:12;41.58;;;36.55;;
21519;SDS011;10921;53.614;9.882;2023-03-23T05:43:38;38.65;;;34.97;;
21519;SDS011;10921;53.614;9.882;2023-03-23T05:46:04;45.45;;;35.78;;
21519;SDS011;10921;53.614;9.882;2023-03-23T05:48:29;37.80;;;34.05;;
21519;SDS011;10921;53.614;9.882;2023-03-23T05:50:55;36.60;;;33.05;;
21519;SDS011;10921;53.614;9.882;2023-03-23T05:53:22;36.55;;;32.85;;
21519;SDS011;10921;53.614;9.882;2023-03-23T05:55:48;36.10;;;32.63;;
21519;SDS011;10921;53.614;9.882;2023-03-23T05:58:13;37.25;;;33.38;;
21519;SDS011;10921;53.614;9.882;2023-03-23T06:00:39;36.65;;;32.65;;
21519;SDS011;10921;53.614;9.882;2023-03-23T06:03:04;35.95;;;32.13;;
21519;SDS011;10921;53.614;9.882;2023-03-23T06:05:30;34.65;;;31.08;;
21519;SDS011;10921;53.614;9.882;2023-03-23T06:07:56;33.83;;;30.40;;
21519;SDS011;10921;53.614;9.882;2023-03-23T06:10:21;36.10;;;29.88;;
21519;SDS011;10921;53.614;9.882;2023-03-23T06:12:49;31.27;;;27.88;;
21519;SDS011;10921;53.614;9.882;2023-03-23T06:15:16;29.88;;;27.00;;
21519;SDS011;10921;53.614;9.882;2023-03-23T06:17:41;30.23;;;26.92;;
21519;SDS011;10921;53.614;9.882;2023-03-23T06:20:07;28.63;;;25.55;;
21519;SDS011;10921;53.614;9.882;2023-03-23T06:22:35;25.98;;;23.60;;
21519;SDS011;10921;53.614;9.882;2023-03-23T06:25:03;28.45;;;25.05;;
21519;SDS011;10921;53.614;9.882;2023-03-23T06:27:32;27.52;;;24.80;;
21519;SDS011;10921;53.614;9.882;2023-03-23T06:29:58;30.50;;;25.52;;
21519;SDS011;10921;53.614;9.882;2023-03-23T06:32:24;26.73;;;23.75;;
21519;SDS011;10921;53.614;9.882;2023-03-23T06:34:52;26.13;;;23.38;;
21519;SDS011;10921;53.614;9.882;2023-03-23T06:37:18;25.35;;;22.65;;
21519;SDS011;10921;53.614;9.882;2023-03-23T06:39:43;24.27;;;21.92;;
21519;SDS011;10921;53.614;9.882;2023-03-23T06:42:09;23.65;;;21.15;;
21519;SDS011;10921;53.614;9.882;2023-03-23T06:44:36;24.48;;;20.58;;
21519;SDS011;10921;53.614;9.882;2023-03-23T06:47:01;21.30;;;19.33;;
21519;SDS011;10921;53.614;9.882;2023-03-23T06:49:27;22.33;;;19.13;;
21519;SDS011;10921;53.614;9.882;2023-03-23T06:51:53;22.23;;;19.80;;
21519;SDS011;10921;53.614;9.882;2023-03-23T06:54:18;21.50;;;19.35;;
21519;SDS011;10921;53.614;9.882;2023-03-23T06:56:44;22.20;;;17.90;;
21519;SDS011;10921;53.614;9.882;2023-03-23T06:59:09;21.45;;;17.85;;
21519;SDS011;10921;53.614;9.882;2023-03-23T07:01:35;20.67;;;18.05;;
21519;SDS011;10921;53.614;9.882;2023-03-23T07:04:01;18.60;;;16.60;;
21519;SDS011;10921;53.614;9.882;2023-03-23T07:06:27;19.20;;;17.25;;
21519;SDS011;10921;53.614;9.882;2023-03-23T07:08:52;18.05;;;16.20;;
21519;SDS011;10921;53.614;9.882;2023-03-23T07:11:18;17.58;;;15.85;;
21519;SDS011;10921;53.614;9.882;2023-03-23T07:13:44;18.55;;;15.50;;
21519;SDS011;10921;53.614;9.882;2023-03-23T07:16:10;17.77;;;15.10;;
21519;SDS011;10921;53.614;9.882;2023-03-23T07:18:36;16.88;;;15.27;;
21519;SDS011;10921;53.614;9.882;2023-03-23T07:21:01;16.83;;;15.25;;
21519;SDS011;10921;53.614;9.882;2023-03-23T07:23:28;16.40;;;14.90;;
21519;SDS011;10921;53.614;9.882;2023-03-23T07:25:54;17.08;;;15.48;;
21519;SDS011;10921;53.614;9.882;2023-03-23T07:28:19;17.15;;;15.35;;
21519;SDS011;10921;53.614;9.882;2023-03-23T07:30:45;17.52;;;15.70;;
21519;SDS011;10921;53.614;9.882;2023-03-23T07:33:10;17.67;;;15.60;;
21519;SDS011;10921;53.614;9.882;2023-03-23T07:35:38;19.33;;;16.45;;
21519;SDS011;10921;53.614;9.882;2023-03-23T07:38:04;19.90;;;17.42;;
21519;SDS011;10921;53.614;9.882;2023-03-23T07:40:31;24.70;;;22.35;;
21519;SDS011;10921;53.614;9.882;2023-03-23T07:43:01;30.13;;;27.48;;
21519;SDS011;10921;53.614;9.882;2023-03-23T07:45:28;33.38;;;30.20;;
21519;SDS011;10921;53.614;9.882;2023-03-23T07:47:55;35.58;;;31.92;;
21519;SDS011;10921;53.614;9.882;2023-03-23T07:50:21;36.00;;;32.78;;
21519;SDS011;10921;53.614;9.882;2023-03-23T07:52:49;34.78;;;31.80;;
21519;SDS011;10921;53.614;9.882;2023-03-23T07:55:15;37.20;;;33.80;;
21519;SDS011;10921;53.614;9.882;2023-03-23T07:57:44;37.85;;;34.22;;
21519;SDS011;10921;53.614;9.882;2023-03-23T08:00:12;40.05;;;36.45;;
21519;SDS011;10921;53.614;9.882;2023-03-23T08:02:45;41.10;;;37.00;;
21519;SDS011;10921;53.614;9.882;2023-03-23T08:05:11;36.80;;;33.42;;
21519;SDS011;10921;53.614;9.882;2023-03-23T08:07:38;34.50;;;31.42;;
21519;SDS011;10921;53.614;9.882;2023-03-23T08:10:05;33.45;;;30.52;;
21519;SDS011;10921;53.614;9.882;2023-03-23T08:12:35;33.30;;;30.30;;
21519;SDS011;10921;53.614;9.882;2023-03-23T08:15:00;32.30;;;29.65;;
21519;SDS011;10921;53.614;9.882;2023-03-23T08:17:26;32.70;;;30.00;;
21519;SDS011;10921;53.614;9.882;2023-03-23T08:19:51;31.38;;;28.67;;
21519;SDS011;10921;53.614;9.882;2023-03-23T08:22:17;33.08;;;30.13;;
21519;SDS011;10921;53.614;9.882;2023-03-23T08:24:43;33.30;;;30.60;;
21519;SDS011;10921;53.614;9.882;2023-03-23T08:27:08;33.65;;;30.80;;
21519;SDS011;10921;53.614;9.882;2023-03-23T08:29:34;33.70;;;30.70;;
21519;SDS011;10921;53.614;9.882;2023-03-23T08:32:00;34.75;;;31.65;;
21519;SDS011;10921;53.614;9.882;2023-03-23T08:34:27;35.67;;;32.17;;
21519;SDS011;10921;53.614;9.882;2023-03-23T08:36:54;34.70;;;31.50;;
21519;SDS011;10921;53.614;9.882;2023-03-23T08:39:20;35.40;;;32.05;;
21519;SDS011;10921;53.614;9.882;2023-03-23T08:41:47;35.25;;;31.70;;
21519;SDS011;10921;53.614;9.882;2023-03-23T08:44:13;36.08;;;32.47;;
21519;SDS011;10921;53.614;9.882;2023-03-23T08:46:39;35.47;;;32.00;;
21519;SDS011;10921;53.614;9.882;2023-03-23T08:49:04;35.83;;;32.28;;
21519;SDS011;10921;53.614;9.882;2023-03-23T08:51:31;35.30;;;31.88;;
21519;SDS011;10921;53.614;9.882;2023-03-23T08:53:57;33.83;;;30.70;;
21519;SDS011;10921;53.614;9.882;2023-03-23T08:56:22;33.00;;;30.08;;
21519;SDS011;10921;53.614;9.882;2023-03-23T08:58:47;33.25;;;30.15;;
21519;SDS011;10921;53.614;9.882;2023-03-23T09:01:13;33.60;;;30.70;;
21519;SDS011;10921;53.614;9.882;2023-03-23T09:03:40;33.45;;;30.15;;
21519;SDS011;10921;53.614;9.882;2023-03-23T09:06:06;34.58;;;31.23;;
21519;SDS011;10921;53.614;9.882;2023-03-23T09:08:34;33.40;;;30.45;;
21519;SDS011;10921;53.614;9.882;2023-03-23T09:11:01;34.28;;;30.92;;
21519;SDS011;10921;53.614;9.882;2023-03-23T09:13:32;35.30;;;31.70;;
21519;SDS011;10921;53.614;9.882;2023-03-23T09:15:58;34.08;;;30.75;;
21519;SDS011;10921;53.614;9.882;2023-03-23T09:18:24;34.55;;;30.95;;
21519;SDS011;10921;53.614;9.882;2023-03-23T09:20:50;33.08;;;30.17;;
21519;SDS011;10921;53.614;9.882;2023-03-23T09:23:16;31.98;;;28.73;;
21519;SDS011;10921;53.614;9.882;2023-03-23T09:25:42;31.85;;;28.70;;
21519;SDS011;10921;53.614;9.882;2023-03-23T09:28:08;31.48;;;28.63;;
21519;SDS011;10921;53.614;9.882;2023-03-23T09:30:34;28.42;;;25.60;;
21519;SDS011;10921;53.614;9.882;2023-03-23T09:33:02;28.80;;;25.77;;
21519;SDS011;10921;53.614;9.882;2023-03-23T09:35:29;26.00;;;23.33;;
21519;SDS011;10921;53.614;9.882;2023-03-23T09:37:56;22.77;;;20.55;;
21519;SDS011;10921;53.614;9.882;2023-03-23T09:40:29;22.95;;;20.58;;
21519;SDS011;10921;53.614;9.882;2023-03-23T09:48:53;23.42;;;16.75;;
21519;SDS011;10921;53.614;9.882;2023-03-23T09:54:00;29.17;;;16.60;;
21519;SDS011;10921;53.614;9.882;2023-03-23T09:56:30;24.42;;;14.82;;
21519;SDS011;10921;53.614;9.882;2023-03-23T10:01:48;25.05;;;14.23;;
21519;SDS011;10921;53.614;9.882;2023-03-23T10:04:19;22.10;;;13.55;;
21519;SDS011;10921;53.614;9.882;2023-03-23T10:07:09;20.85;;;12.40;;
21519;SDS011;10921;53.614;9.882;2023-03-23T10:09:56;26.88;;;12.40;;
21519;SDS011;10921;53.614;9.882;2023-03-23T10:12:31;23.00;;;12.82;;
21519;SDS011;10921;53.614;9.882;2023-03-23T10:20:39;24.73;;;12.77;;
21519;SDS011;10921;53.614;9.882;2023-03-23T10:25:47;23.75;;;13.10;;
21519;SDS011;10921;53.614;9.882;2023-03-23T10:28:21;22.67;;;12.30;;
21519;SDS011;10921;53.614;9.882;2023-03-23T10:31:10;18.45;;;12.65;;
21519;SDS011;10921;53.614;9.882;2023-03-23T10:33:43;19.65;;;12.30;;
21519;SDS011;10921;53.614;9.882;2023-03-23T10:36:25;18.35;;;12.45;;
21519;SDS011;10921;53.614;9.882;2023-03-23T10:41:31;27.15;;;12.70;;
21519;SDS011;10921;53.614;9.882;2023-03-23T10:43:56;18.20;;;12.15;;
21519;SDS011;10921;53.614;9.882;2023-03-23T10:46:26;24.80;;;12.50;;
21519;SDS011;10921;53.614;9.882;2023-03-23T10:48:58;23.23;;;12.45;;
21519;SDS011;10921;53.614;9.882;2023-03-23T10:51:28;25.77;;;12.57;;
21519;SDS011;10921;53.614;9.882;2023-03-23T10:54:00;17.17;;;11.93;;
21519;SDS011;10921;53.614;9.882;2023-03-23T10:59:20;20.38;;;11.80;;
21519;SDS011;10921;53.614;9.882;2023-03-23T11:04:23;16.48;;;11.70;;
21519;SDS011;10921;53.614;9.882;2023-03-23T11:06:50;18.38;;;12.05;;
21519;SDS011;10921;53.614;9.882;2023-03-23T11:09:21;23.13;;;11.60;;
21519;SDS011;10921;53.614;9.882;2023-03-23T11:11:57;26.75;;;12.00;;
21519;SDS011;10921;53.614;9.882;2023-03-23T11:16:54;27.40;;;12.60;;
21519;SDS011;10921;53.614;9.882;2023-03-23T11:24:35;27.25;;;11.68;;
21519;SDS011;10921;53.614;9.882;2023-03-23T11:27:06;25.27;;;13.07;;
21519;SDS011;10921;53.614;9.882;2023-03-23T11:29:34;35.85;;;12.50;;
21519;SDS011;10921;53.614;9.882;2023-03-23T11:34:39;21.40;;;12.27;;
21519;SDS011;10921;53.614;9.882;2023-03-23T11:37:08;28.95;;;13.30;;
21519;SDS011;10921;53.614;9.882;2023-03-23T11:45:19;29.08;;;12.35;;
21519;SDS011;10921;53.614;9.882;2023-03-23T11:48:11;28.70;;;12.93;;
21519;SDS011;10921;53.614;9.882;2023-03-23T11:50:50;25.90;;;12.00;;
21519;SDS011;10921;53.614;9.882;2023-03-23T11:56:01;27.15;;;12.52;;
21519;SDS011;10921;53.614;9.882;2023-03-23T11:58:36;21.95;;;12.90;;
21519;SDS011;10921;53.614;9.882;2023-03-23T12:01:05;23.27;;;12.60;;
21519;SDS011;10921;53.614;9.882;2023-03-23T12:15:26;25.88;;;13.90;;
21519;SDS011;10921;53.614;9.882;2023-03-23T12:18:01;21.98;;;13.38;;
21519;SDS011;10921;53.614;9.882;2023-03-23T12:48:59;21.10;;;12.18;;
21519;SDS011;10921;53.614;9.882;2023-03-23T13:05:00;21.35;;;12.68;;
21519;SDS011;10921;53.614;9.882;2023-03-23T13:07:56;24.02;;;12.85;;
21519;SDS011;10921;53.614;9.882;2023-03-23T13:10:45;26.65;;;12.80;;
21519;SDS011;10921;53.614;9.882;2023-03-23T13:13:15;24.02;;;12.73;;
21519;SDS011;10921;53.614;9.882;2023-03-23T13:15:50;25.75;;;13.32;;
21519;SDS011;10921;53.614;9.882;2023-03-23T13:23:50;27.58;;;13.68;;
21519;SDS011;10921;53.614;9.882;2023-03-23T13:26:21;19.48;;;11.90;;
21519;SDS011;10921;53.614;9.882;2023-03-23T13:28:55;17.17;;;12.35;;
21519;SDS011;10921;53.614;9.882;2023-03-23T13:34:01;20.95;;;12.27;;
21519;SDS011;10921;53.614;9.882;2023-03-23T13:38:59;20.77;;;12.63;;
21519;SDS011;10921;53.614;9.882;2023-03-23T13:41:26;18.05;;;11.93;;
21519;SDS011;10921;53.614;9.882;2023-03-23T13:43:52;21.17;;;12.32;;
21519;SDS011;10921;53.614;9.882;2023-03-23T13:46:30;16.85;;;11.45;;
21519;SDS011;10921;53.614;9.882;2023-03-23T13:49:15;16.90;;;12.02;;
21519;SDS011;10921;53.614;9.882;2023-03-23T13:59:32;30.15;;;27.55;;
21519;SDS011;10921;53.614;9.882;2023-03-23T14:04:57;32.40;;;29.40;;
21519;SDS011;10921;53.614;9.882;2023-03-23T14:07:49;32.95;;;30.08;;
21519;SDS011;10921;53.614;9.882;2023-03-23T14:10:43;35.50;;;32.25;;
21519;SDS011;10921;53.614;9.882;2023-03-23T14:13:18;36.55;;;32.80;;
21519;SDS011;10921;53.614;9.882;2023-03-23T14:15:57;35.42;;;32.20;;
21519;SDS011;10921;53.614;9.882;2023-03-23T14:18:48;36.80;;;32.85;;
21519;SDS011;10921;53.614;9.882;2023-03-23T14:23:53;35.78;;;32.05;;
21519;SDS011;10921;53.614;9.882;2023-03-23T14:26:21;35.60;;;32.20;;
21519;SDS011;10921;53.614;9.882;2023-03-23T14:28:49;35.05;;;31.17;;
21519;SDS011;10921;53.614;9.882;2023-03-23T14:33:49;32.85;;;29.65;;
21519;SDS011;10921;53.614;9.882;2023-03-23T14:36:29;30.65;;;27.85;;
21519;SDS011;10921;53.614;9.882;2023-03-23T14:39:01;29.10;;;26.45;;
21519;SDS011;10921;53.614;9.882;2023-03-23T14:41:30;25.60;;;23.30;;
21519;SDS011;10921;53.614;9.882;2023-03-23T14:43:56;23.58;;;21.50;;
21519;SDS011;10921;53.614;9.882;2023-03-23T14:46:25;21.27;;;19.23;;
21519;SDS011;10921;53.614;9.882;2023-03-23T14:48:51;19.20;;;17.17;;
21519;SDS011;10921;53.614;9.882;2023-03-23T14:51:17;17.52;;;15.70;;
21519;SDS011;10921;53.614;9.882;2023-03-23T14:53:45;17.92;;;15.25;;
21519;SDS011;10921;53.614;9.882;2023-03-23T14:56:14;17.65;;;15.55;;
21519;SDS011;10921;53.614;9.882;2023-03-23T14:59:00;16.10;;;14.50;;
21519;SDS011;10921;53.614;9.882;2023-03-23T15:01:29;15.43;;;13.80;;
21519;SDS011;10921;53.614;9.882;2023-03-23T15:04:03;14.93;;;13.53;;
21519;SDS011;10921;53.614;9.882;2023-03-23T15:06:40;16.33;;;13.55;;
21519;SDS011;10921;53.614;9.882;2023-03-23T15:09:17;17.13;;;13.32;;
21519;SDS011;10921;53.614;9.882;2023-03-23T15:11:50;15.52;;;13.15;;
21519;SDS011;10921;53.614;9.882;2023-03-23T15:14:47;15.25;;;13.25;;
21519;SDS011;10921;53.614;9.882;2023-03-23T15:17:18;15.00;;;13.55;;
21519;SDS011;10921;53.614;9.882;2023-03-23T15:19:47;14.57;;;13.18;;
21519;SDS011;10921;53.614;9.882;2023-03-23T15:22:23;14.43;;;13.02;;
21519;SDS011;10921;53.614;9.882;2023-03-23T15:27:32;16.83;;;14.00;;
21519;SDS011;10921;53.614;9.882;2023-03-23T15:30:00;18.30;;;14.32;;
21519;SDS011;10921;53.614;9.882;2023-03-23T15:32:38;17.05;;;15.27;;
21519;SDS011;10921;53.614;9.882;2023-03-23T15:35:12;20.98;;;18.85;;
21519;SDS011;10921;53.614;9.882;2023-03-23T15:37:47;28.38;;;25.95;;
21519;SDS011;10921;53.614;9.882;2023-03-23T15:40:16;31.83;;;28.83;;
21519;SDS011;10921;53.614;9.882;2023-03-23T15:42:43;32.88;;;29.85;;
21519;SDS011;10921;53.614;9.882;2023-03-23T15:52:51;35.20;;;31.27;;
21519;SDS011;10921;53.614;9.882;2023-03-23T15:57:53;37.20;;;31.35;;
21519;SDS011;10921;53.614;9.882;2023-03-23T16:00:22;35.08;;;31.58;;
21519;SDS011;10921;53.614;9.882;2023-03-23T16:03:00;34.13;;;30.92;;
21519;SDS011;10921;53.614;9.882;2023-03-23T16:05:29;36.25;;;31.27;;
21519;SDS011;10921;53.614;9.882;2023-03-23T16:07:57;42.83;;;33.75;;
21519;SDS011;10921;53.614;9.882;2023-03-23T16:10:24;36.60;;;32.28;;
21519;SDS011;10921;53.614;9.882;2023-03-23T16:12:53;35.95;;;32.05;;
21519;SDS011;10921;53.614;9.882;2023-03-23T16:15:20;33.53;;;30.38;;
21519;SDS011;10921;53.614;9.882;2023-03-23T16:17:46;35.55;;;31.52;;
21519;SDS011;10921;53.614;9.882;2023-03-23T16:20:17;33.63;;;30.58;;
21519;SDS011;10921;53.614;9.882;2023-03-23T16:22:47;33.83;;;30.70;;
21519;SDS011;10921;53.614;9.882;2023-03-23T16:25:14;33.50;;;30.00;;
21519;SDS011;10921;53.614;9.882;2023-03-23T16:27:42;38.85;;;30.05;;
21519;SDS011;10921;53.614;9.882;2023-03-23T16:30:22;32.03;;;29.00;;
21519;SDS011;10921;53.614;9.882;2023-03-23T16:32:51;32.10;;;28.90;;
21519;SDS011;10921;53.614;9.882;2023-03-23T16:35:22;32.97;;;29.75;;
21519;SDS011;10921;53.614;9.882;2023-03-23T16:37:50;32.13;;;29.25;;
21519;SDS011;10921;53.614;9.882;2023-03-23T16:40:34;33.10;;;29.95;;
21519;SDS011;10921;53.614;9.882;2023-03-23T16:43:01;32.40;;;29.50;;
21519;SDS011;10921;53.614;9.882;2023-03-23T16:45:34;33.38;;;30.25;;
21519;SDS011;10921;53.614;9.882;2023-03-23T16:48:02;34.05;;;30.42;;
21519;SDS011;10921;53.614;9.882;2023-03-23T16:50:29;34.55;;;31.00;;
21519;SDS011;10921;53.614;9.882;2023-03-23T16:52:56;33.35;;;30.08;;
21519;SDS011;10921;53.614;9.882;2023-03-23T16:55:22;34.33;;;30.20;;
21519;SDS011;10921;53.614;9.882;2023-03-23T16:57:51;33.53;;;30.38;;
21519;SDS011;10921;53.614;9.882;2023-03-23T17:00:30;33.92;;;30.70;;
21519;SDS011;10921;53.614;9.882;2023-03-23T17:02:57;133.63;;;92.57;;
21519;SDS011;10921;53.614;9.882;2023-03-23T17:05:26;72.88;;;52.83;;
21519;SDS011;10921;53.614;9.882;2023-03-23T17:07:54;51.53;;;40.60;;
21519;SDS011;10921;53.614;9.882;2023-03-23T17:10:22;36.58;;;32.72;;
21519;SDS011;10921;53.614;9.882;2023-03-23T17:12:50;50.85;;;45.53;;
21519;SDS011;10921;53.614;9.882;2023-03-23T17:15:16;47.47;;;42.28;;
21519;SDS011;10921;53.614;9.882;2023-03-23T17:17:43;40.40;;;36.25;;
21519;SDS011;10921;53.614;9.882;2023-03-23T17:20:09;35.35;;;31.67;;
21519;SDS011;10921;53.614;9.882;2023-03-23T17:22:37;33.30;;;29.80;;
21519;SDS011;10921;53.614;9.882;2023-03-23T17:25:04;33.45;;;30.15;;